sensor_id;sensor_type;location;lat;lon;timestamp;pressure;altitude;pressure_sealevel;temperature
20103;BMP180;10210;52.284;9.892;2023-06-10T00:02:01;100710.00;;;25.50
20103;BMP180;10210;52.284;9.892;2023-06-10T00:04:27;100708.00;;;25.50
20103;BMP180;10210;52.284;9.892;2023-06-10T00:06:54;100718.00;;;25.40
20103;BMP180;10210;52.284;9.892;2023-06-10T00:09:22;100721.00;;;25.40
20103;BMP180;10210;52.284;9.892;2023-06-10T00:11:49;100717.00;;;25.40
20103;BMP180;10210;52.284;9.892;2023-06-10T00:14:15;100722.00;;;25.30
20103;BMP180;10210;52.284;9.892;2023-06-10T00:16:41;100716.00;;;25.30
20103;BMP180;10210;52.284;9.892;2023-06-10T00:19:10;100714.00;;;25.30
20103;BMP180;10210;52.284;9.892;2023-06-10T00:21:39;100720.00;;;25.30
20103;BMP180;10210;52.284;9.892;2023-06-10T00:24:09;100712.00;;;25.20
20103;BMP180;10210;52.284;9.892;2023-06-10T00:26:41;100716.00;;;25.20
20103;BMP180;10210;52.284;9.892;2023-06-10T00:29:07;100716.00;;;25.20
20103;BMP180;10210;52.284;9.892;2023-06-10T00:31:38;100714.00;;;25.10
20103;BMP180;10210;52.284;9.892;2023-06-10T00:34:05;100709.00;;;25.10
20103;BMP180;10210;52.284;9.892;2023-06-10T00:36:30;100721.00;;;25.10
20103;BMP180;10210;52.284;9.892;2023-06-10T00:38:57;100713.00;;;25.10
20103;BMP180;10210;52.284;9.892;2023-06-10T00:41:25;100716.00;;;25.00
20103;BMP180;10210;52.284;9.892;2023-06-10T00:43:52;100709.00;;;25.00
20103;BMP180;10210;52.284;9.892;2023-06-10T00:46:18;100702.00;;;25.00
20103;BMP180;10210;52.284;9.892;2023-06-10T00:48:45;100713.00;;;24.90
20103;BMP180;10210;52.284;9.892;2023-06-10T00:51:11;100707.00;;;24.90
20103;BMP180;10210;52.284;9.892;2023-06-10T00:53:40;100710.00;;;24.80
20103;BMP180;10210;52.284;9.892;2023-06-10T00:56:08;100713.00;;;24.80
20103;BMP180;10210;52.284;9.892;2023-06-10T00:58:35;100717.00;;;24.70
20103;BMP180;10210;52.284;9.892;2023-06-10T01:01:01;100718.00;;;24.70
20103;BMP180;10210;52.284;9.892;2023-06-10T01:03:29;100714.00;;;24.60
20103;BMP180;10210;52.284;9.892;2023-06-10T01:09:11;100721.00;;;24.40
20103;BMP180;10210;52.284;9.892;2023-06-10T01:11:52;100724.00;;;24.30
20103;BMP180;10210;52.284;9.892;2023-06-10T01:14:20;100716.00;;;24.30
20103;BMP180;10210;52.284;9.892;2023-06-10T01:16:46;100723.00;;;24.20
20103;BMP180;10210;52.284;9.892;2023-06-10T01:19:13;100718.00;;;24.20
20103;BMP180;10210;52.284;9.892;2023-06-10T01:21:41;100719.00;;;24.10
20103;BMP180;10210;52.284;9.892;2023-06-10T01:24:08;100715.00;;;24.10
20103;BMP180;10210;52.284;9.892;2023-06-10T01:26:37;100726.00;;;24.00
20103;BMP180;10210;52.284;9.892;2023-06-10T01:29:19;100721.00;;;23.90
20103;BMP180;10210;52.284;9.892;2023-06-10T01:32:31;100716.00;;;23.80
20103;BMP180;10210;52.284;9.892;2023-06-10T01:34:59;100720.00;;;23.80
20103;BMP180;10210;52.284;9.892;2023-06-10T01:37:27;100721.00;;;23.70
20103;BMP180;10210;52.284;9.892;2023-06-10T01:39:57;100716.00;;;23.70
20103;BMP180;10210;52.284;9.892;2023-06-10T01:42:25;100717.00;;;23.70
20103;BMP180;10210;52.284;9.892;2023-06-10T01:44:52;100721.00;;;23.60
20103;BMP180;10210;52.284;9.892;2023-06-10T01:47:20;100724.00;;;23.60
20103;BMP180;10210;52.284;9.892;2023-06-10T01:49:47;100727.00;;;23.50
20103;BMP180;10210;52.284;9.892;2023-06-10T01:52:14;100724.00;;;23.50
20103;BMP180;10210;52.284;9.892;2023-06-10T01:54:39;100729.00;;;23.50
20103;BMP180;10210;52.284;9.892;2023-06-10T01:57:05;100729.00;;;23.50
20103;BMP180;10210;52.284;9.892;2023-06-10T01:59:31;100736.00;;;23.40
20103;BMP180;10210;52.284;9.892;2023-06-10T02:01:57;100725.00;;;23.40
20103;BMP180;10210;52.284;9.892;2023-06-10T02:04:23;100730.00;;;23.30
20103;BMP180;10210;52.284;9.892;2023-06-10T02:06:48;100734.00;;;23.30
20103;BMP180;10210;52.284;9.892;2023-06-10T02:09:14;100737.00;;;23.20
20103;BMP180;10210;52.284;9.892;2023-06-10T02:11:40;100734.00;;;23.20
20103;BMP180;10210;52.284;9.892;2023-06-10T02:14:05;100735.00;;;23.10
20103;BMP180;10210;52.284;9.892;2023-06-10T02:16:31;100743.00;;;23.10
20103;BMP180;10210;52.284;9.892;2023-06-10T02:18:57;100736.00;;;23.00
20103;BMP180;10210;52.284;9.892;2023-06-10T02:21:26;100739.00;;;23.00
20103;BMP180;10210;52.284;9.892;2023-06-10T02:23:51;100731.00;;;22.90
20103;BMP180;10210;52.284;9.892;2023-06-10T02:26:17;100740.00;;;22.90
20103;BMP180;10210;52.284;9.892;2023-06-10T02:28:43;100745.00;;;22.80
20103;BMP180;10210;52.284;9.892;2023-06-10T02:31:09;100755.00;;;22.80
20103;BMP180;10210;52.284;9.892;2023-06-10T02:33:34;100758.00;;;22.80
20103;BMP180;10210;52.284;9.892;2023-06-10T02:36:00;100748.00;;;22.80
20103;BMP180;10210;52.284;9.892;2023-06-10T02:38:26;100758.00;;;22.80
20103;BMP180;10210;52.284;9.892;2023-06-10T02:40:52;100759.00;;;22.80
20103;BMP180;10210;52.284;9.892;2023-06-10T02:43:17;100757.00;;;22.70
20103;BMP180;10210;52.284;9.892;2023-06-10T02:45:43;100749.00;;;22.70
20103;BMP180;10210;52.284;9.892;2023-06-10T02:48:09;100760.00;;;22.70
20103;BMP180;10210;52.284;9.892;2023-06-10T02:50:34;100761.00;;;22.70
20103;BMP180;10210;52.284;9.892;2023-06-10T02:53:00;100767.00;;;22.60
20103;BMP180;10210;52.284;9.892;2023-06-10T02:55:27;100765.00;;;22.60
20103;BMP180;10210;52.284;9.892;2023-06-10T02:57:54;100761.00;;;22.50
20103;BMP180;10210;52.284;9.892;2023-06-10T03:00:20;100769.00;;;22.50
20103;BMP180;10210;52.284;9.892;2023-06-10T03:02:47;100757.00;;;22.50
20103;BMP180;10210;52.284;9.892;2023-06-10T03:05:14;100759.00;;;22.40
20103;BMP180;10210;52.284;9.892;2023-06-10T03:07:40;100766.00;;;22.40
20103;BMP180;10210;52.284;9.892;2023-06-10T03:10:06;100757.00;;;22.40
20103;BMP180;10210;52.284;9.892;2023-06-10T03:12:32;100759.00;;;22.40
20103;BMP180;10210;52.284;9.892;2023-06-10T03:14:58;100765.00;;;22.40
20103;BMP180;10210;52.284;9.892;2023-06-10T03:17:24;100758.00;;;22.30
20103;BMP180;10210;52.284;9.892;2023-06-10T03:19:49;100770.00;;;22.30
20103;BMP180;10210;52.284;9.892;2023-06-10T03:22:16;100761.00;;;22.30
20103;BMP180;10210;52.284;9.892;2023-06-10T03:24:42;100763.00;;;22.20
20103;BMP180;10210;52.284;9.892;2023-06-10T03:27:10;100763.00;;;22.20
20103;BMP180;10210;52.284;9.892;2023-06-10T03:29:37;100766.00;;;22.20
20103;BMP180;10210;52.284;9.892;2023-06-10T03:32:03;100768.00;;;22.20
20103;BMP180;10210;52.284;9.892;2023-06-10T03:34:30;100771.00;;;22.10
20103;BMP180;10210;52.284;9.892;2023-06-10T03:36:58;100771.00;;;22.10
20103;BMP180;10210;52.284;9.892;2023-06-10T03:39:24;100768.00;;;22.10
20103;BMP180;10210;52.284;9.892;2023-06-10T03:41:50;100771.00;;;22.10
20103;BMP180;10210;52.284;9.892;2023-06-10T03:44:16;100773.00;;;22.10
20103;BMP180;10210;52.284;9.892;2023-06-10T03:46:42;100783.00;;;22.10
20103;BMP180;10210;52.284;9.892;2023-06-10T03:49:07;100783.00;;;22.00
20103;BMP180;10210;52.284;9.892;2023-06-10T03:51:37;100788.00;;;22.00
20103;BMP180;10210;52.284;9.892;2023-06-10T03:54:03;100797.00;;;22.00
20103;BMP180;10210;52.284;9.892;2023-06-10T03:56:29;100788.00;;;22.00
20103;BMP180;10210;52.284;9.892;2023-06-10T03:58:55;100785.00;;;22.00
20103;BMP180;10210;52.284;9.892;2023-06-10T04:01:21;100791.00;;;21.90
20103;BMP180;10210;52.284;9.892;2023-06-10T04:03:49;100793.00;;;21.90
20103;BMP180;10210;52.284;9.892;2023-06-10T04:06:17;100786.00;;;21.90
20103;BMP180;10210;52.284;9.892;2023-06-10T04:08:42;100793.00;;;21.90
20103;BMP180;10210;52.284;9.892;2023-06-10T04:11:09;100790.00;;;21.90
20103;BMP180;10210;52.284;9.892;2023-06-10T04:13:34;100788.00;;;21.90
20103;BMP180;10210;52.284;9.892;2023-06-10T04:16:00;100795.00;;;21.90
20103;BMP180;10210;52.284;9.892;2023-06-10T04:18:27;100796.00;;;21.80
20103;BMP180;10210;52.284;9.892;2023-06-10T04:20:54;100792.00;;;21.80
20103;BMP180;10210;52.284;9.892;2023-06-10T04:23:20;100795.00;;;21.80
20103;BMP180;10210;52.284;9.892;2023-06-10T04:25:46;100797.00;;;21.80
20103;BMP180;10210;52.284;9.892;2023-06-10T04:28:12;100792.00;;;21.80
20103;BMP180;10210;52.284;9.892;2023-06-10T04:30:38;100792.00;;;21.80
20103;BMP180;10210;52.284;9.892;2023-06-10T04:33:04;100782.00;;;21.80
20103;BMP180;10210;52.284;9.892;2023-06-10T04:35:32;100780.00;;;21.80
20103;BMP180;10210;52.284;9.892;2023-06-10T04:37:58;100785.00;;;21.80
20103;BMP180;10210;52.284;9.892;2023-06-10T04:40:24;100789.00;;;21.90
20103;BMP180;10210;52.284;9.892;2023-06-10T04:42:49;100785.00;;;21.80
20103;BMP180;10210;52.284;9.892;2023-06-10T04:45:15;100798.00;;;21.90
20103;BMP180;10210;52.284;9.892;2023-06-10T04:47:41;100792.00;;;21.90
20103;BMP180;10210;52.284;9.892;2023-06-10T04:50:07;100796.00;;;21.90
20103;BMP180;10210;52.284;9.892;2023-06-10T04:52:32;100792.00;;;21.90
20103;BMP180;10210;52.284;9.892;2023-06-10T04:54:59;100787.00;;;21.90
20103;BMP180;10210;52.284;9.892;2023-06-10T04:57:25;100788.00;;;21.90
20103;BMP180;10210;52.284;9.892;2023-06-10T04:59:52;100784.00;;;21.90
20103;BMP180;10210;52.284;9.892;2023-06-10T05:02:19;100781.00;;;21.90
20103;BMP180;10210;52.284;9.892;2023-06-10T05:04:45;100780.00;;;21.90
20103;BMP180;10210;52.284;9.892;2023-06-10T05:07:11;100785.00;;;21.90
20103;BMP180;10210;52.284;9.892;2023-06-10T05:09:37;100779.00;;;21.90
20103;BMP180;10210;52.284;9.892;2023-06-10T05:12:04;100784.00;;;21.90
20103;BMP180;10210;52.284;9.892;2023-06-10T05:14:31;100792.00;;;21.90
20103;BMP180;10210;52.284;9.892;2023-06-10T05:16:58;100787.00;;;21.90
20103;BMP180;10210;52.284;9.892;2023-06-10T05:19:24;100796.00;;;21.90
20103;BMP180;10210;52.284;9.892;2023-06-10T05:21:51;100784.00;;;21.90
20103;BMP180;10210;52.284;9.892;2023-06-10T05:24:16;100791.00;;;21.90
20103;BMP180;10210;52.284;9.892;2023-06-10T05:26:43;100786.00;;;21.90
20103;BMP180;10210;52.284;9.892;2023-06-10T05:29:10;100795.00;;;22.00
20103;BMP180;10210;52.284;9.892;2023-06-10T05:31:36;100789.00;;;22.00
20103;BMP180;10210;52.284;9.892;2023-06-10T05:34:02;100797.00;;;22.00
20103;BMP180;10210;52.284;9.892;2023-06-10T05:36:28;100797.00;;;22.10
20103;BMP180;10210;52.284;9.892;2023-06-10T05:38:53;100784.00;;;22.10
20103;BMP180;10210;52.284;9.892;2023-06-10T05:41:20;100787.00;;;22.10
20103;BMP180;10210;52.284;9.892;2023-06-10T05:43:47;100796.00;;;22.10
20103;BMP180;10210;52.284;9.892;2023-06-10T05:46:14;100784.00;;;22.10
20103;BMP180;10210;52.284;9.892;2023-06-10T05:48:40;100785.00;;;22.20
20103;BMP180;10210;52.284;9.892;2023-06-10T05:51:06;100781.00;;;22.20
20103;BMP180;10210;52.284;9.892;2023-06-10T05:53:32;100781.00;;;22.20
20103;BMP180;10210;52.284;9.892;2023-06-10T05:55:59;100791.00;;;22.30
20103;BMP180;10210;52.284;9.892;2023-06-10T05:58:26;100788.00;;;22.30
20103;BMP180;10210;52.284;9.892;2023-06-10T06:00:53;100786.00;;;22.40
20103;BMP180;10210;52.284;9.892;2023-06-10T06:03:20;100788.00;;;22.40
20103;BMP180;10210;52.284;9.892;2023-06-10T06:05:45;100790.00;;;22.40
20103;BMP180;10210;52.284;9.892;2023-06-10T06:08:11;100790.00;;;22.40
20103;BMP180;10210;52.284;9.892;2023-06-10T06:10:39;100798.00;;;22.40
20103;BMP180;10210;52.284;9.892;2023-06-10T06:13:04;100786.00;;;22.40
20103;BMP180;10210;52.284;9.892;2023-06-10T06:15:30;100793.00;;;22.40
20103;BMP180;10210;52.284;9.892;2023-06-10T06:17:58;100791.00;;;22.40
20103;BMP180;10210;52.284;9.892;2023-06-10T06:20:25;100790.00;;;22.40
20103;BMP180;10210;52.284;9.892;2023-06-10T06:22:51;100800.00;;;22.40
20103;BMP180;10210;52.284;9.892;2023-06-10T06:25:16;100790.00;;;22.50
20103;BMP180;10210;52.284;9.892;2023-06-10T06:27:42;100797.00;;;22.50
20103;BMP180;10210;52.284;9.892;2023-06-10T06:30:09;100797.00;;;22.50
20103;BMP180;10210;52.284;9.892;2023-06-10T06:32:37;100798.00;;;22.60
20103;BMP180;10210;52.284;9.892;2023-06-10T06:35:03;100806.00;;;22.60
20103;BMP180;10210;52.284;9.892;2023-06-10T06:37:31;100806.00;;;22.60
20103;BMP180;10210;52.284;9.892;2023-06-10T06:39:58;100802.00;;;22.70
20103;BMP180;10210;52.284;9.892;2023-06-10T06:42:23;100800.00;;;22.70
20103;BMP180;10210;52.284;9.892;2023-06-10T06:44:49;100797.00;;;22.80
20103;BMP180;10210;52.284;9.892;2023-06-10T06:47:15;100801.00;;;22.80
20103;BMP180;10210;52.284;9.892;2023-06-10T06:49:43;100803.00;;;22.90
20103;BMP180;10210;52.284;9.892;2023-06-10T06:52:09;100809.00;;;23.00
20103;BMP180;10210;52.284;9.892;2023-06-10T06:54:34;100810.00;;;23.10
20103;BMP180;10210;52.284;9.892;2023-06-10T06:57:00;100806.00;;;23.10
20103;BMP180;10210;52.284;9.892;2023-06-10T06:59:26;100811.00;;;23.20
20103;BMP180;10210;52.284;9.892;2023-06-10T07:01:51;100802.00;;;23.30
20103;BMP180;10210;52.284;9.892;2023-06-10T07:04:19;100805.00;;;23.40
20103;BMP180;10210;52.284;9.892;2023-06-10T07:06:47;100806.00;;;23.60
20103;BMP180;10210;52.284;9.892;2023-06-10T07:09:13;100815.00;;;24.20
20103;BMP180;10210;52.284;9.892;2023-06-10T07:11:38;100811.00;;;24.60
20103;BMP180;10210;52.284;9.892;2023-06-10T07:14:04;100814.00;;;24.90
20103;BMP180;10210;52.284;9.892;2023-06-10T07:16:30;100819.00;;;25.10
20103;BMP180;10210;52.284;9.892;2023-06-10T07:18:56;100816.00;;;25.60
20103;BMP180;10210;52.284;9.892;2023-06-10T07:21:22;100818.00;;;26.20
20103;BMP180;10210;52.284;9.892;2023-06-10T07:23:49;100811.00;;;26.90
20103;BMP180;10210;52.284;9.892;2023-06-10T07:26:15;100815.00;;;27.50
20103;BMP180;10210;52.284;9.892;2023-06-10T07:28:41;100819.00;;;28.00
20103;BMP180;10210;52.284;9.892;2023-06-10T07:31:08;100836.00;;;28.50
20103;BMP180;10210;52.284;9.892;2023-06-10T07:33:35;100838.00;;;29.00
20103;BMP180;10210;52.284;9.892;2023-06-10T07:36:02;100827.00;;;29.40
20103;BMP180;10210;52.284;9.892;2023-06-10T07:38:28;100834.00;;;29.80
20103;BMP180;10210;52.284;9.892;2023-06-10T07:40:53;100834.00;;;30.10
20103;BMP180;10210;52.284;9.892;2023-06-10T07:43:19;100830.00;;;30.30
20103;BMP180;10210;52.284;9.892;2023-06-10T07:45:45;100844.00;;;30.50
20103;BMP180;10210;52.284;9.892;2023-06-10T07:48:11;100843.00;;;30.70
20103;BMP180;10210;52.284;9.892;2023-06-10T07:50:36;100844.00;;;31.00
20103;BMP180;10210;52.284;9.892;2023-06-10T07:53:02;100836.00;;;31.20
20103;BMP180;10210;52.284;9.892;2023-06-10T07:55:28;100844.00;;;31.40
20103;BMP180;10210;52.284;9.892;2023-06-10T07:57:54;100837.00;;;31.60
20103;BMP180;10210;52.284;9.892;2023-06-10T08:00:21;100835.00;;;31.80
20103;BMP180;10210;52.284;9.892;2023-06-10T08:02:47;100839.00;;;32.00
20103;BMP180;10210;52.284;9.892;2023-06-10T08:05:13;100828.00;;;32.10
20103;BMP180;10210;52.284;9.892;2023-06-10T08:07:40;100836.00;;;32.30
20103;BMP180;10210;52.284;9.892;2023-06-10T08:10:07;100835.00;;;32.40
20103;BMP180;10210;52.284;9.892;2023-06-10T08:12:34;100838.00;;;32.60
20103;BMP180;10210;52.284;9.892;2023-06-10T08:15:00;100835.00;;;32.60
20103;BMP180;10210;52.284;9.892;2023-06-10T08:17:25;100838.00;;;32.70
20103;BMP180;10210;52.284;9.892;2023-06-10T08:19:51;100838.00;;;32.90
20103;BMP180;10210;52.284;9.892;2023-06-10T08:22:17;100825.00;;;32.90
20103;BMP180;10210;52.284;9.892;2023-06-10T08:24:43;100830.00;;;33.00
20103;BMP180;10210;52.284;9.892;2023-06-10T08:27:08;100825.00;;;33.10
20103;BMP180;10210;52.284;9.892;2023-06-10T08:29:34;100825.00;;;33.20
20103;BMP180;10210;52.284;9.892;2023-06-10T08:32:00;100828.00;;;33.30
20103;BMP180;10210;52.284;9.892;2023-06-10T08:34:26;100829.00;;;33.30
20103;BMP180;10210;52.284;9.892;2023-06-10T08:36:51;100831.00;;;33.40
20103;BMP180;10210;52.284;9.892;2023-06-10T08:39:23;100833.00;;;33.50
20103;BMP180;10210;52.284;9.892;2023-06-10T08:42:13;100838.00;;;33.50
20103;BMP180;10210;52.284;9.892;2023-06-10T08:44:46;100836.00;;;33.60
20103;BMP180;10210;52.284;9.892;2023-06-10T08:47:16;100835.00;;;33.60
20103;BMP180;10210;52.284;9.892;2023-06-10T08:49:47;100831.00;;;33.70
20103;BMP180;10210;52.284;9.892;2023-06-10T08:52:20;100826.00;;;33.70
20103;BMP180;10210;52.284;9.892;2023-06-10T08:54:59;100824.00;;;33.70
20103;BMP180;10210;52.284;9.892;2023-06-10T08:57:29;100826.00;;;33.70
20103;BMP180;10210;52.284;9.892;2023-06-10T08:59:57;100827.00;;;33.70
20103;BMP180;10210;52.284;9.892;2023-06-10T09:02:27;100829.00;;;33.70
20103;BMP180;10210;52.284;9.892;2023-06-10T09:04:55;100833.00;;;33.70
20103;BMP180;10210;52.284;9.892;2023-06-10T09:07:21;100830.00;;;33.70
20103;BMP180;10210;52.284;9.892;2023-06-10T09:09:49;100828.00;;;33.70
20103;BMP180;10210;52.284;9.892;2023-06-10T09:12:15;100833.00;;;33.60
20103;BMP180;10210;52.284;9.892;2023-06-10T09:14:44;100821.00;;;33.60
20103;BMP180;10210;52.284;9.892;2023-06-10T09:17:10;100825.00;;;33.60
20103;BMP180;10210;52.284;9.892;2023-06-10T09:19:38;100822.00;;;33.60
20103;BMP180;10210;52.284;9.892;2023-06-10T09:22:04;100822.00;;;33.60
20103;BMP180;10210;52.284;9.892;2023-06-10T09:24:31;100825.00;;;33.60
20103;BMP180;10210;52.284;9.892;2023-06-10T09:29:52;100818.00;;;33.40
20103;BMP180;10210;52.284;9.892;2023-06-10T09:32:19;100827.00;;;33.50
20103;BMP180;10210;52.284;9.892;2023-06-10T09:34:47;100817.00;;;33.50
20103;BMP180;10210;52.284;9.892;2023-06-10T09:37:13;100820.00;;;33.50
20103;BMP180;10210;52.284;9.892;2023-06-10T09:39:40;100822.00;;;33.30
20103;BMP180;10210;52.284;9.892;2023-06-10T09:42:16;100819.00;;;33.00
20103;BMP180;10210;52.284;9.892;2023-06-10T09:44:50;100823.00;;;32.80
20103;BMP180;10210;52.284;9.892;2023-06-10T09:47:21;100817.00;;;32.60
20103;BMP180;10210;52.284;9.892;2023-06-10T09:49:51;100820.00;;;32.60
20103;BMP180;10210;52.284;9.892;2023-06-10T09:52:26;100815.00;;;32.60
20103;BMP180;10210;52.284;9.892;2023-06-10T09:54:54;100820.00;;;32.60
20103;BMP180;10210;52.284;9.892;2023-06-10T09:57:23;100820.00;;;32.70
20103;BMP180;10210;52.284;9.892;2023-06-10T09:59:53;100821.00;;;32.70
20103;BMP180;10210;52.284;9.892;2023-06-10T10:02:19;100814.00;;;32.60
20103;BMP180;10210;52.284;9.892;2023-06-10T10:04:45;100816.00;;;32.50
20103;BMP180;10210;52.284;9.892;2023-06-10T10:07:11;100810.00;;;32.40
20103;BMP180;10210;52.284;9.892;2023-06-10T10:09:38;100813.00;;;32.40
20103;BMP180;10210;52.284;9.892;2023-06-10T10:12:11;100817.00;;;32.40
20103;BMP180;10210;52.284;9.892;2023-06-10T10:14:39;100817.00;;;32.40
20103;BMP180;10210;52.284;9.892;2023-06-10T10:17:11;100814.00;;;32.40
20103;BMP180;10210;52.284;9.892;2023-06-10T10:19:46;100808.00;;;32.30
20103;BMP180;10210;52.284;9.892;2023-06-10T10:22:20;100820.00;;;32.20
20103;BMP180;10210;52.284;9.892;2023-06-10T10:24:52;100807.00;;;32.10
20103;BMP180;10210;52.284;9.892;2023-06-10T10:27:28;100806.00;;;32.10
20103;BMP180;10210;52.284;9.892;2023-06-10T10:29:58;100804.00;;;32.00
20103;BMP180;10210;52.284;9.892;2023-06-10T10:32:42;100804.00;;;31.90
20103;BMP180;10210;52.284;9.892;2023-06-10T10:35:18;100800.00;;;31.80
20103;BMP180;10210;52.284;9.892;2023-06-10T10:37:45;100813.00;;;31.90
20103;BMP180;10210;52.284;9.892;2023-06-10T10:40:12;100808.00;;;31.90
20103;BMP180;10210;52.284;9.892;2023-06-10T10:42:39;100810.00;;;31.90
20103;BMP180;10210;52.284;9.892;2023-06-10T10:45:08;100809.00;;;32.00
20103;BMP180;10210;52.284;9.892;2023-06-10T10:47:36;100797.00;;;32.10
20103;BMP180;10210;52.284;9.892;2023-06-10T10:50:14;100791.00;;;32.10
20103;BMP180;10210;52.284;9.892;2023-06-10T10:52:56;100794.00;;;32.20
20103;BMP180;10210;52.284;9.892;2023-06-10T10:55:23;100792.00;;;32.30
20103;BMP180;10210;52.284;9.892;2023-06-10T10:58:08;100798.00;;;32.20
20103;BMP180;10210;52.284;9.892;2023-06-10T11:00:37;100796.00;;;32.30
20103;BMP180;10210;52.284;9.892;2023-06-10T11:05:41;100795.00;;;32.40
20103;BMP180;10210;52.284;9.892;2023-06-10T11:08:10;100789.00;;;32.40
20103;BMP180;10210;52.284;9.892;2023-06-10T11:10:38;100794.00;;;32.50
20103;BMP180;10210;52.284;9.892;2023-06-10T11:13:14;100792.00;;;32.50
20103;BMP180;10210;52.284;9.892;2023-06-10T11:15:48;100784.00;;;32.60
20103;BMP180;10210;52.284;9.892;2023-06-10T11:18:38;100786.00;;;32.60
20103;BMP180;10210;52.284;9.892;2023-06-10T11:21:05;100775.00;;;32.70
20103;BMP180;10210;52.284;9.892;2023-06-10T11:23:41;100776.00;;;32.60
20103;BMP180;10210;52.284;9.892;2023-06-10T11:31:40;100772.00;;;32.60
20103;BMP180;10210;52.284;9.892;2023-06-10T11:34:08;100765.00;;;32.60
20103;BMP180;10210;52.284;9.892;2023-06-10T11:36:38;100760.00;;;32.60
20103;BMP180;10210;52.284;9.892;2023-06-10T11:39:09;100763.00;;;32.60
20103;BMP180;10210;52.284;9.892;2023-06-10T11:41:38;100769.00;;;32.60
20103;BMP180;10210;52.284;9.892;2023-06-10T11:46:34;100747.00;;;32.60
20103;BMP180;10210;52.284;9.892;2023-06-10T11:49:01;100756.00;;;32.60
20103;BMP180;10210;52.284;9.892;2023-06-10T11:51:48;100751.00;;;32.60
20103;BMP180;10210;52.284;9.892;2023-06-10T11:54:20;100747.00;;;32.70
20103;BMP180;10210;52.284;9.892;2023-06-10T11:56:47;100746.00;;;32.80
20103;BMP180;10210;52.284;9.892;2023-06-10T11:59:14;100747.00;;;32.90
20103;BMP180;10210;52.284;9.892;2023-06-10T12:01:44;100751.00;;;32.90
20103;BMP180;10210;52.284;9.892;2023-06-10T12:04:13;100748.00;;;33.00
20103;BMP180;10210;52.284;9.892;2023-06-10T12:06:48;100746.00;;;33.10
20103;BMP180;10210;52.284;9.892;2023-06-10T12:09:28;100748.00;;;33.10
20103;BMP180;10210;52.284;9.892;2023-06-10T12:11:58;100747.00;;;33.20
20103;BMP180;10210;52.284;9.892;2023-06-10T12:14:59;100749.00;;;33.20
20103;BMP180;10210;52.284;9.892;2023-06-10T12:19:56;100747.00;;;33.40
20103;BMP180;10210;52.284;9.892;2023-06-10T12:22:23;100748.00;;;33.50
20103;BMP180;10210;52.284;9.892;2023-06-10T12:25:03;100746.00;;;33.50
20103;BMP180;10210;52.284;9.892;2023-06-10T12:27:30;100744.00;;;33.50
20103;BMP180;10210;52.284;9.892;2023-06-10T12:29:58;100746.00;;;33.60
20103;BMP180;10210;52.284;9.892;2023-06-10T12:32:55;100739.00;;;33.60
20103;BMP180;10210;52.284;9.892;2023-06-10T12:35:25;100736.00;;;33.70
20103;BMP180;10210;52.284;9.892;2023-06-10T12:38:02;100734.00;;;33.70
20103;BMP180;10210;52.284;9.892;2023-06-10T12:40:38;100738.00;;;33.80
20103;BMP180;10210;52.284;9.892;2023-06-10T12:43:06;100740.00;;;33.80
20103;BMP180;10210;52.284;9.892;2023-06-10T12:45:38;100730.00;;;33.90
20103;BMP180;10210;52.284;9.892;2023-06-10T12:48:19;100722.00;;;33.90
20103;BMP180;10210;52.284;9.892;2023-06-10T12:50:52;100729.00;;;33.90
20103;BMP180;10210;52.284;9.892;2023-06-10T12:53:19;100726.00;;;33.90
20103;BMP180;10210;52.284;9.892;2023-06-10T12:55:46;100720.00;;;34.00
20103;BMP180;10210;52.284;9.892;2023-06-10T12:58:13;100720.00;;;34.00
20103;BMP180;10210;52.284;9.892;2023-06-10T13:00:39;100717.00;;;34.00
20103;BMP180;10210;52.284;9.892;2023-06-10T13:03:09;100713.00;;;34.00
20103;BMP180;10210;52.284;9.892;2023-06-10T13:05:38;100708.00;;;34.10
20103;BMP180;10210;52.284;9.892;2023-06-10T13:08:08;100718.00;;;34.10
20103;BMP180;10210;52.284;9.892;2023-06-10T13:10:36;100717.00;;;34.20
20103;BMP180;10210;52.284;9.892;2023-06-10T13:13:02;100719.00;;;34.30
20103;BMP180;10210;52.284;9.892;2023-06-10T13:15:32;100712.00;;;34.20
20103;BMP180;10210;52.284;9.892;2023-06-10T13:18:05;100710.00;;;34.30
20103;BMP180;10210;52.284;9.892;2023-06-10T13:20:31;100708.00;;;34.30
20103;BMP180;10210;52.284;9.892;2023-06-10T13:22:57;100711.00;;;34.40
20103;BMP180;10210;52.284;9.892;2023-06-10T13:25:22;100709.00;;;34.50
20103;BMP180;10210;52.284;9.892;2023-06-10T13:27:48;100701.00;;;34.60
20103;BMP180;10210;52.284;9.892;2023-06-10T13:30:14;100708.00;;;34.60
20103;BMP180;10210;52.284;9.892;2023-06-10T13:32:40;100691.00;;;34.70
20103;BMP180;10210;52.284;9.892;2023-06-10T13:35:06;100694.00;;;34.80
20103;BMP180;10210;52.284;9.892;2023-06-10T13:37:33;100701.00;;;34.80
20103;BMP180;10210;52.284;9.892;2023-06-10T13:39:59;100696.00;;;34.90
20103;BMP180;10210;52.284;9.892;2023-06-10T13:42:25;100692.00;;;35.00
20103;BMP180;10210;52.284;9.892;2023-06-10T13:44:54;100691.00;;;35.10
20103;BMP180;10210;52.284;9.892;2023-06-10T13:47:20;100683.00;;;35.10
20103;BMP180;10210;52.284;9.892;2023-06-10T13:49:46;100675.00;;;35.20
20103;BMP180;10210;52.284;9.892;2023-06-10T13:52:12;100676.00;;;35.20
20103;BMP180;10210;52.284;9.892;2023-06-10T13:54:37;100678.00;;;35.30
20103;BMP180;10210;52.284;9.892;2023-06-10T13:57:04;100675.00;;;35.30
20103;BMP180;10210;52.284;9.892;2023-06-10T13:59:30;100679.00;;;35.40
20103;BMP180;10210;52.284;9.892;2023-06-10T14:01:55;100675.00;;;35.40
20103;BMP180;10210;52.284;9.892;2023-06-10T14:04:22;100673.00;;;35.40
20103;BMP180;10210;52.284;9.892;2023-06-10T14:06:48;100670.00;;;35.40
20103;BMP180;10210;52.284;9.892;2023-06-10T14:09:14;100671.00;;;35.50
20103;BMP180;10210;52.284;9.892;2023-06-10T14:11:40;100667.00;;;35.50
20103;BMP180;10210;52.284;9.892;2023-06-10T14:14:05;100677.00;;;35.50
20103;BMP180;10210;52.284;9.892;2023-06-10T14:16:31;100669.00;;;35.50
20103;BMP180;10210;52.284;9.892;2023-06-10T14:18:57;100674.00;;;35.50
20103;BMP180;10210;52.284;9.892;2023-06-10T14:21:22;100667.00;;;35.60